Terminal Aerodrome Forecast
Issued by NWS Bismarck, ND

Home | Current Version | Previous Version | Text Only | Print | Product List | Glossary On
Versions: 1 2 3 4 5 6 7 8 9 10 11 12 13 14 15 16 17 18 19 20
000
FTUS43 KBIS 301120
TAFISN
TAF
KISN 301120Z 3012/3112 00000KT P6SM BKN100
     FM301500 30005KT P6SM VCSH BKN070
     FM301700 31007KT P6SM -SHRA VCTS OVC050CB
      TEMPO 3017/3019 4SM -TSRA OVC040CB
     FM310000 32007KT P6SM VCSH BKN050
     FM310900 29007KT P6SM BKN025=

USA.gov is the U.S. government's official web portal to all federal, state and local government web resources and services.